Time;durP1;ratioP1;P1;durP2;ratioP2;P2;SDS_P1;SDS_P2;PMS_P1;PMS_P2;Temp;Humidity;BMP_temperature;BMP_pressure;BME280_temperature;BME280_humidity;BME280_pressure;Samples;Min_cycle;Max_cycle;Signal;HPM_P1;HPM_P2
2022/08/31 00:04:04;;;;;;;9.48;8.77;;;20.80;99.90;;;;;;5094878;28;20217;-84
2022/08/31 00:06:33;;;;;;;9.60;8.80;;;20.70;99.90;;;;;;5100158;28;20244;-84
2022/08/31 00:09:00;;;;;;;9.50;8.55;;;20.60;99.90;;;;;;5109611;28;20177;-85
2022/08/31 00:11:30;;;;;;;10.27;9.30;;;20.60;99.90;;;;;;5107065;28;20211;-84
2022/08/31 00:14:06;;;;;;;8.18;7.38;;;20.70;99.90;;;;;;5103136;28;20183;-84
2022/08/31 00:16:35;;;;;;;7.57;6.88;;;20.50;99.90;;;;;;5101767;28;20198;-85
2022/08/31 00:19:01;;;;;;;7.90;7.20;;;20.20;99.90;;;;;;5094891;28;20207;-85
2022/08/31 00:21:27;;;;;;;7.13;6.55;;;20.10;99.90;;;;;;5096665;28;20216;-84
2022/08/31 00:23:53;;;;;;;6.80;6.30;;;20.20;99.90;;;;;;5101075;28;20210;-85
2022/08/31 00:26:20;;;;;;;8.00;6.80;;;20.10;99.90;;;;;;5097996;28;20214;-84
2022/08/31 00:28:46;;;;;;;7.53;6.93;;;20.00;99.90;;;;;;5089931;28;20191;-84
2022/08/31 00:31:12;;;;;;;8.00;7.30;;;20.00;99.90;;;;;;5090516;28;20195;-84
2022/08/31 00:33:38;;;;;;;7.63;7.03;;;20.00;99.90;;;;;;5089315;28;20572;-85
2022/08/31 00:36:06;;;;;;;7.45;6.85;;;20.10;99.90;;;;;;5095964;28;20183;-85
2022/08/31 00:38:32;;;;;;;8.93;7.95;;;20.10;99.90;;;;;;5100096;28;20248;-85
2022/08/31 00:40:58;;;;;;;8.05;7.45;;;20.10;99.90;;;;;;5101202;28;20182;-85
2022/08/31 00:43:39;;;;;;;7.88;7.07;;;20.10;99.90;;;;;;5097754;28;20190;-85
2022/08/31 00:46:06;;;;;;;7.85;7.22;;;20.20;99.90;;;;;;5101654;28;20197;-85
2022/08/31 00:48:33;;;;;;;8.20;7.28;;;20.30;99.90;;;;;;5096521;28;20194;-85
2022/08/31 00:51:00;;;;;;;8.40;7.60;;;20.20;99.90;;;;;;5098893;28;20214;-84
2022/08/31 00:53:26;;;;;;;8.27;7.47;;;20.20;99.90;;;;;;5100560;28;20297;-85
2022/08/31 00:55:52;;;;;;;7.93;7.22;;;20.10;99.90;;;;;;5098780;28;20182;-85
2022/08/31 00:58:17;;;;;;;8.15;7.32;;;20.10;99.90;;;;;;5098271;28;20215;-85
2022/08/31 01:00:44;;;;;;;10.18;7.85;;;20.10;99.90;;;;;;5079880;28;20305;-84
2022/08/31 01:03:10;;;;;;;8.95;8.25;;;20.10;99.90;;;;;;5099068;28;20179;-85
2022/08/31 01:05:38;;;;;;;8.90;8.10;;;20.10;99.90;;;;;;5097694;28;20202;-85
2022/08/31 01:08:05;;;;;;;8.57;7.80;;;20.00;99.90;;;;;;5099869;28;20178;-85
2022/08/31 01:10:34;;;;;;;9.68;8.02;;;20.00;99.90;;;;;;5098868;28;20216;-85
2022/08/31 01:13:01;;;;;;;9.05;8.32;;;20.00;99.90;;;;;;5093311;28;20174;-85
2022/08/31 01:15:28;;;;;;;8.32;7.57;;;19.90;99.90;;;;;;5099038;28;20195;-85
2022/08/31 01:17:56;;;;;;;9.88;8.88;;;20.00;99.90;;;;;;5099449;28;20175;-84
2022/08/31 01:20:24;;;;;;;8.88;7.97;;;20.00;99.90;;;;;;5098942;28;20311;-85
2022/08/31 01:23:17;;;;;;;9.15;8.27;;;20.00;99.90;;;;;;5097977;28;20186;-86
2022/08/31 01:25:44;;;;;;;9.80;8.02;;;20.00;99.90;;;;;;5094700;28;20178;-85
2022/08/31 01:28:11;;;;;;;8.65;7.78;;;19.90;99.90;;;;;;5094476;28;20186;-85
2022/08/31 01:30:38;;;;;;;8.77;7.97;;;19.90;99.90;;;;;;5089007;28;20230;-84
2022/08/31 01:33:04;;;;;;;8.15;7.40;;;20.00;99.90;;;;;;5087667;28;20683;-84
2022/08/31 01:35:30;;;;;;;7.57;6.93;;;20.10;99.90;;;;;;5092204;28;20210;-85
2022/08/31 01:37:57;;;;;;;8.23;7.40;;;20.10;99.90;;;;;;5096528;28;20178;-84
2022/08/31 01:40:34;;;;;;;8.73;7.93;;;20.10;99.90;;;;;;5097565;28;20215;-84
2022/08/31 01:43:00;;;;;;;8.45;7.68;;;20.20;99.90;;;;;;5096201;28;20194;-84
2022/08/31 01:45:25;;;;;;;7.80;7.10;;;20.30;99.90;;;;;;5079742;28;20211;-84
2022/08/31 01:47:51;;;;;;;7.32;6.75;;;20.50;99.90;;;;;;5097618;28;20204;-84
2022/08/31 01:50:17;;;;;;;7.57;6.97;;;20.50;99.90;;;;;;5097860;28;20229;-86
2022/08/31 01:52:43;;;;;;;7.72;7.10;;;20.40;99.90;;;;;;5095225;28;20253;-85
2022/08/31 01:55:08;;;;;;;7.18;6.47;;;20.60;99.90;;;;;;5100381;28;20214;-85
2022/08/31 01:57:35;;;;;;;7.35;6.75;;;20.70;99.90;;;;;;5099568;28;20181;-85
2022/08/31 02:00:07;;;;;;;6.60;6.10;;;20.80;99.90;;;;;;5094012;28;20582;-84
2022/08/31 02:02:33;;;;;;;6.70;6.20;;;20.90;99.90;;;;;;5097209;28;20282;-85
2022/08/31 02:04:59;;;;;;;7.38;6.75;;;21.10;99.90;;;;;;5097245;28;20271;-85
2022/08/31 02:07:25;;;;;;;7.13;6.63;;;21.20;99.90;;;;;;5093968;28;20190;-85
2022/08/31 02:09:51;;;;;;;6.60;6.00;;;21.30;99.90;;;;;;5095817;28;20192;-84
2022/08/31 02:12:16;;;;;;;6.38;5.85;;;21.30;99.90;;;;;;5095910;28;20203;-85
2022/08/31 02:14:42;;;;;;;6.65;6.00;;;21.50;99.90;;;;;;5096786;28;20203;-85
2022/08/31 02:17:08;;;;;;;7.18;6.45;;;21.70;99.60;;;;;;5099118;28;20232;-84
2022/08/31 02:19:34;;;;;;;6.97;6.47;;;21.90;99.70;;;;;;5092912;28;20186;-84
2022/08/31 02:21:59;;;;;;;6.80;6.20;;;21.90;98.40;;;;;;5096139;28;20739;-84
2022/08/31 02:24:25;;;;;;;6.35;5.82;;;21.90;97.70;;;;;;5098616;28;20260;-85
2022/08/31 02:26:51;;;;;;;5.95;5.53;;;21.90;98.40;;;;;;5097478;28;20238;-84
2022/08/31 02:29:17;;;;;;;6.50;6.00;;;21.90;98.00;;;;;;5093867;28;20191;-85
2022/08/31 02:31:43;;;;;;;7.22;6.72;;;21.90;97.50;;;;;;5092706;28;21163;-84
2022/08/31 02:34:09;;;;;;;6.38;5.82;;;21.90;98.10;;;;;;5092024;28;20206;-84
2022/08/31 02:36:34;;;;;;;6.60;6.20;;;22.00;98.20;;;;;;5091276;28;20274;-85
2022/08/31 02:39:00;;;;;;;6.47;5.95;;;22.00;97.90;;;;;;5095340;28;20194;-85
2022/08/31 02:41:26;;;;;;;7.43;5.95;;;22.00;97.70;;;;;;5076904;28;20218;-84
2022/08/31 02:43:52;;;;;;;6.82;6.32;;;22.00;97.60;;;;;;5094495;28;20679;-84
2022/08/31 02:46:18;;;;;;;6.57;6.07;;;22.00;97.70;;;;;;5093928;28;20655;-84
2022/08/31 02:48:43;;;;;;;6.20;5.70;;;21.90;98.20;;;;;;5092518;28;20205;-85
2022/08/31 02:51:10;;;;;;;5.80;5.40;;;21.90;98.00;;;;;;5095952;28;20263;-84
2022/08/31 02:53:37;;;;;;;6.65;6.15;;;22.00;97.20;;;;;;5096264;28;20644;-85
2022/08/31 02:56:03;;;;;;;6.53;5.88;;;22.10;97.60;;;;;;5096457;28;20840;-84
2022/08/31 02:58:29;;;;;;;5.88;5.38;;;22.20;97.70;;;;;;5094451;28;20202;-85
2022/08/31 03:00:55;;;;;;;6.38;5.88;;;22.20;95.70;;;;;;5098719;28;20217;-85
2022/08/31 03:03:21;;;;;;;6.22;5.75;;;22.30;95.80;;;;;;5098852;28;20186;-84
2022/08/31 03:05:48;;;;;;;5.88;5.47;;;22.20;94.30;;;;;;5099914;28;20179;-85
2022/08/31 03:08:14;;;;;;;6.82;6.32;;;22.20;95.10;;;;;;5097366;28;20298;-85
2022/08/31 03:10:40;;;;;;;6.40;5.88;;;22.20;94.50;;;;;;5099987;28;20279;-85
2022/08/31 03:13:06;;;;;;;5.45;5.07;;;22.20;92.30;;;;;;5095404;28;20651;-84
2022/08/31 03:15:31;;;;;;;6.00;5.60;;;22.00;91.80;;;;;;5095146;28;20236;-85
2022/08/31 03:17:57;;;;;;;7.25;6.50;;;22.10;93.20;;;;;;5091267;28;20182;-85
2022/08/31 03:20:25;;;;;;;6.38;5.95;;;22.10;93.90;;;;;;5098666;28;20181;-84
2022/08/31 03:22:51;;;;;;;6.60;6.05;;;22.10;94.20;;;;;;5099483;28;20263;-84
2022/08/31 03:25:17;;;;;;;6.10;5.68;;;22.00;95.00;;;;;;5100945;28;20245;-85
2022/08/31 03:27:44;;;;;;;6.72;6.22;;;22.10;95.70;;;;;;5099192;28;20183;-84
2022/08/31 03:30:14;;;;;;;6.22;5.72;;;22.00;96.20;;;;;;5090750;28;20183;-84
2022/08/31 03:32:40;;;;;;;6.57;6.03;;;21.90;96.70;;;;;;5092338;28;20835;-84
2022/08/31 03:35:07;;;;;;;6.43;5.93;;;21.70;97.30;;;;;;5094241;28;20238;-85
2022/08/31 03:37:33;;;;;;;6.47;5.97;;;21.60;97.30;;;;;;5090525;28;20191;-84
2022/08/31 03:39:59;;;;;;;6.28;5.88;;;21.70;97.80;;;;;;5095420;28;20188;-84
2022/08/31 03:42:26;;;;;;;6.65;5.68;;;21.80;97.40;;;;;;5089736;28;20175;-85
2022/08/31 03:44:51;;;;;;;7.00;6.40;;;21.70;97.70;;;;;;5088063;28;20235;-85
2022/08/31 03:47:17;;;;;;;6.80;6.30;;;21.50;98.50;;;;;;5092239;28;20235;-86
2022/08/31 03:49:42;;;;;;;6.55;6.10;;;21.30;99.90;;;;;;5091401;28;20213;-86
2022/08/31 03:52:09;;;;;;;7.60;7.00;;;21.10;99.90;;;;;;5089044;28;20223;-86
2022/08/31 03:54:35;;;;;;;6.85;6.35;;;21.10;99.90;;;;;;5095400;28;20217;-86
2022/08/31 03:57:02;;;;;;;7.15;6.55;;;21.10;99.90;;;;;;5088022;28;20228;-85
2022/08/31 03:59:28;;;;;;;7.15;6.50;;;21.20;99.90;;;;;;5090463;28;20191;-86
2022/08/31 04:01:54;;;;;;;6.65;6.22;;;21.20;99.90;;;;;;5091585;28;20197;-89
2022/08/31 04:04:19;;;;;;;7.50;6.97;;;21.20;99.90;;;;;;5089644;28;20709;-86
2022/08/31 04:06:45;;;;;;;7.75;7.15;;;21.20;99.90;;;;;;5090314;28;20194;-86
2022/08/31 04:09:11;;;;;;;8.15;7.45;;;21.20;99.90;;;;;;5086980;28;20186;-86
2022/08/31 04:11:42;;;;;;;7.90;7.18;;;21.10;99.90;;;;;;5087477;28;20191;-86
2022/08/31 04:14:08;;;;;;;7.05;6.45;;;21.00;99.90;;;;;;5089312;28;20211;-86
2022/08/31 04:16:35;;;;;;;8.77;8.18;;;21.00;99.90;;;;;;5089234;28;20179;-86
2022/08/31 04:19:01;;;;;;;8.18;7.57;;;21.10;99.90;;;;;;5085770;28;20244;-87
2022/08/31 04:21:31;;;;;;;8.38;7.75;;;21.10;99.90;;;;;;5091017;28;20202;-86
2022/08/31 04:23:59;;;;;;;8.77;7.97;;;21.10;99.90;;;;;;5095295;28;20214;-89
2022/08/31 04:26:33;;;;;;;8.82;8.13;;;20.90;99.90;;;;;;5096190;28;20202;-86
2022/08/31 04:29:00;;;;;;;8.57;7.97;;;20.90;99.90;;;;;;5093356;28;20189;-85
2022/08/31 04:31:26;;;;;;;9.00;8.10;;;20.90;99.90;;;;;;5089005;28;20213;-86
2022/08/31 04:33:55;;;;;;;8.85;8.00;;;20.90;99.90;;;;;;5088031;28;20206;-87
2022/08/31 04:36:24;;;;;;;8.10;7.55;;;20.90;99.90;;;;;;5086972;28;20197;-85
2022/08/31 04:38:51;;;;;;;8.60;7.78;;;21.00;99.90;;;;;;5091904;28;20612;-87
2022/08/31 04:41:19;;;;;;;8.45;7.75;;;20.90;99.90;;;;;;5086623;28;20244;-85
2022/08/31 04:43:48;;;;;;;8.30;7.60;;;20.90;99.90;;;;;;5087021;28;20217;-86
2022/08/31 04:46:14;;;;;;;8.90;8.20;;;21.00;99.90;;;;;;5094118;28;20197;-86
2022/08/31 04:48:40;;;;;;;8.25;7.55;;;21.00;99.90;;;;;;5093121;28;20183;-86
2022/08/31 04:51:17;;;;;;;8.45;7.85;;;21.00;99.90;;;;;;5093882;28;20562;-86
2022/08/31 04:53:43;;;;;;;8.18;7.47;;;21.10;99.90;;;;;;5085793;28;20244;-86
2022/08/31 04:56:13;;;;;;;8.32;7.72;;;21.10;99.90;;;;;;5095302;28;20242;-86
2022/08/31 04:58:47;;;;;;;7.65;7.05;;;21.20;99.90;;;;;;5071746;28;20332;-87
2022/08/31 05:01:17;;;;;;;7.65;7.13;;;21.40;99.90;;;;;;5088801;28;20200;-86
2022/08/31 05:03:43;;;;;;;8.75;7.80;;;21.40;99.90;;;;;;5088496;28;20213;-86
2022/08/31 05:06:16;;;;;;;8.60;7.85;;;21.50;99.90;;;;;;5088233;28;20187;-85
2022/08/31 05:08:42;;;;;;;8.95;8.25;;;21.50;99.90;;;;;;5090016;28;20235;-87
2022/08/31 05:11:18;;;;;;;9.73;9.02;;;21.50;99.90;;;;;;5088174;28;20612;-87
2022/08/31 05:13:44;;;;;;;8.05;7.43;;;21.30;99.90;;;;;;5088626;28;20194;-86
2022/08/31 05:16:11;;;;;;;8.70;8.00;;;21.20;99.90;;;;;;5090328;28;20201;-86
2022/08/31 05:18:40;;;;;;;8.60;7.95;;;21.20;99.90;;;;;;5090356;28;20244;-88
2022/08/31 05:21:09;;;;;;;8.07;7.43;;;21.20;99.90;;;;;;5091589;28;20703;-87
2022/08/31 05:23:34;;;;;;;8.45;7.65;;;21.40;99.70;;;;;;5093301;28;20206;-86
2022/08/31 05:26:00;;;;;;;7.53;6.93;;;21.60;98.90;;;;;;5087004;28;20179;-86
2022/08/31 05:28:26;;;;;;;7.93;7.32;;;21.70;97.90;;;;;;5084410;28;20191;-85
2022/08/31 05:30:51;;;;;;;8.40;7.68;;;21.80;98.20;;;;;;5084919;28;20258;-88
2022/08/31 05:33:17;;;;;;;8.57;7.88;;;21.80;98.10;;;;;;5092093;28;20179;-86
2022/08/31 05:35:43;;;;;;;8.15;7.45;;;21.70;98.90;;;;;;5078507;28;20188;-87
2022/08/31 05:38:09;;;;;;;8.13;7.55;;;21.80;98.00;;;;;;5092674;28;20182;-85
2022/08/31 05:40:35;;;;;;;9.57;8.82;;;21.90;97.50;;;;;;5096523;28;20175;-86
2022/08/31 05:43:01;;;;;;;9.25;8.55;;;21.80;99.20;;;;;;5092780;28;20690;-87
2022/08/31 05:45:27;;;;;;;9.05;8.23;;;21.80;98.70;;;;;;5091293;28;20237;-86
2022/08/31 05:47:53;;;;;;;8.80;8.02;;;21.80;98.40;;;;;;5093743;28;20221;-87
2022/08/31 05:50:18;;;;;;;8.70;8.05;;;21.80;97.60;;;;;;5089768;28;20204;-86
2022/08/31 05:52:44;;;;;;;9.18;8.45;;;21.90;97.40;;;;;;5097005;28;20191;-88
2022/08/31 05:55:13;;;;;;;11.38;10.27;;;21.90;98.40;;;;;;5092784;28;20222;-88
2022/08/31 05:57:39;;;;;;;8.90;8.23;;;22.00;98.60;;;;;;5089095;28;20312;-87
2022/08/31 06:00:09;;;;;;;8.48;7.72;;;22.00;98.60;;;;;;5089143;28;20184;-88
2022/08/31 06:02:36;;;;;;;8.52;7.80;;;22.00;98.10;;;;;;5091995;28;20183;-86
2022/08/31 06:05:02;;;;;;;9.40;8.70;;;22.10;98.20;;;;;;5090640;28;20213;-86
2022/08/31 06:07:28;;;;;;;11.00;9.95;;;22.10;97.90;;;;;;5094665;28;20199;-88
2022/08/31 06:09:54;;;;;;;9.93;9.02;;;21.70;99.90;;;;;;5098963;28;20191;-87
2022/08/31 06:12:24;;;;;;;10.25;9.35;;;21.60;99.90;;;;;;5091451;28;20219;-88
2022/08/31 06:14:49;;;;;;;10.40;9.50;;;21.60;99.90;;;;;;5094382;28;20202;-87
2022/08/31 06:17:16;;;;;;;9.98;9.13;;;21.40;99.90;;;;;;5094885;28;20191;-85
2022/08/31 06:19:42;;;;;;;10.50;9.70;;;21.30;99.90;;;;;;5087861;28;20192;-85
2022/08/31 06:22:08;;;;;;;10.63;9.82;;;21.40;99.90;;;;;;5095538;28;20209;-87
2022/08/31 06:24:35;;;;;;;11.43;10.50;;;21.30;99.90;;;;;;5094713;28;20298;-86
2022/08/31 06:27:02;;;;;;;11.02;10.02;;;21.40;99.90;;;;;;5100185;28;20320;-87
2022/08/31 06:29:31;;;;;;;10.52;9.63;;;21.40;99.90;;;;;;5098640;28;20324;-86
2022/08/31 06:31:59;;;;;;;11.55;10.43;;;21.50;99.90;;;;;;5091512;28;20200;-88
2022/08/31 06:34:27;;;;;;;9.75;8.93;;;21.50;99.90;;;;;;5091147;28;20215;-86
2022/08/31 06:36:56;;;;;;;9.40;8.60;;;21.50;99.90;;;;;;5093146;28;20182;-88
2022/08/31 06:39:22;;;;;;;9.38;8.68;;;21.60;99.90;;;;;;5078426;28;20327;-87
2022/08/31 06:41:51;;;;;;;9.80;8.95;;;21.80;99.10;;;;;;5091044;28;20199;-86
2022/08/31 06:44:19;;;;;;;9.85;9.05;;;21.80;99.10;;;;;;5096567;28;20219;-86
2022/08/31 06:46:45;;;;;;;9.38;8.68;;;21.80;98.80;;;;;;5093606;28;20183;-86
2022/08/31 06:49:11;;;;;;;10.13;9.32;;;21.90;99.30;;;;;;5069998;28;20179;-85
2022/08/31 06:51:37;;;;;;;9.18;8.38;;;21.80;98.70;;;;;;5095044;28;20233;-85
2022/08/31 06:54:06;;;;;;;9.68;8.88;;;21.80;99.10;;;;;;5096722;28;20207;-87
2022/08/31 06:56:33;;;;;;;10.13;9.32;;;21.90;99.00;;;;;;5087766;28;20790;-85
2022/08/31 06:59:00;;;;;;;10.05;9.15;;;21.90;99.90;;;;;;5090629;28;20189;-85
2022/08/31 07:01:27;;;;;;;11.82;9.38;;;21.90;99.50;;;;;;5094918;28;20187;-86
2022/08/31 07:03:55;;;;;;;9.73;8.95;;;21.80;99.30;;;;;;5070505;28;20213;-85
2022/08/31 07:06:29;;;;;;;9.25;8.55;;;21.80;99.40;;;;;;5095279;28;20193;-86
2022/08/31 07:08:59;;;;;;;10.05;9.15;;;21.80;99.40;;;;;;5092477;28;20230;-85
2022/08/31 07:11:28;;;;;;;8.68;7.97;;;21.80;99.90;;;;;;5091681;28;20202;-86
2022/08/31 07:13:55;;;;;;;9.82;9.10;;;21.80;99.90;;;;;;5096574;28;20203;-87
2022/08/31 07:16:23;;;;;;;9.75;9.00;;;21.80;99.60;;;;;;5090795;28;20209;-85
2022/08/31 07:18:51;;;;;;;9.52;8.73;;;21.80;99.90;;;;;;5092452;28;20186;-87
2022/08/31 07:21:34;;;;;;;8.68;7.88;;;21.90;99.90;;;;;;5095839;28;20597;-88
2022/08/31 07:24:01;;;;;;;9.20;8.60;;;21.80;99.80;;;;;;5086952;28;20207;-87
2022/08/31 07:26:42;;;;;;;10.20;9.40;;;21.90;99.90;;;;;;5098751;28;20183;-86
2022/08/31 07:29:10;;;;;;;9.80;9.00;;;21.90;99.90;;;;;;5098477;28;20206;-85
2022/08/31 07:31:46;;;;;;;11.02;10.13;;;21.90;99.90;;;;;;5091677;28;20272;-86
2022/08/31 07:34:15;;;;;;;10.15;9.25;;;21.70;99.90;;;;;;5088793;28;20206;-86
2022/08/31 07:42:14;;;;;;;10.27;9.48;;;21.60;99.90;;;;;;5095670;28;20232;-87
2022/08/31 07:44:43;;;;;;;10.13;9.32;;;21.50;99.90;;;;;;5089775;28;20494;-85
2022/08/31 07:47:13;;;;;;;10.70;9.70;;;21.60;99.90;;;;;;5090317;28;20294;-87
2022/08/31 07:49:47;;;;;;;9.77;8.98;;;21.70;99.90;;;;;;5090939;28;20203;-86
2022/08/31 07:52:20;;;;;;;10.02;9.23;;;21.70;99.90;;;;;;5091689;28;20206;-87
2022/08/31 07:54:47;;;;;;;10.63;9.82;;;21.80;99.90;;;;;;5082242;28;20200;-85
2022/08/31 07:57:14;;;;;;;10.27;9.40;;;21.80;99.90;;;;;;5091773;28;20363;-85
2022/08/31 07:59:40;;;;;;;10.88;10.07;;;21.90;99.90;;;;;;5088810;28;20642;-87
2022/08/31 08:02:07;;;;;;;10.55;9.73;;;22.00;99.90;;;;;;5064816;28;20195;-87
2022/08/31 08:04:37;;;;;;;11.00;10.10;;;22.10;99.90;;;;;;5089839;28;20293;-86
2022/08/31 08:07:04;;;;;;;11.27;10.38;;;22.10;99.90;;;;;;5093608;28;20180;-87
2022/08/31 08:09:31;;;;;;;12.90;11.90;;;22.20;99.90;;;;;;5088559;28;20182;-87
2022/08/31 08:12:03;;;;;;;12.52;11.43;;;22.20;99.90;;;;;;5082112;28;20211;-85
2022/08/31 08:14:29;;;;;;;12.15;11.10;;;22.00;99.90;;;;;;5092338;28;20207;-86
2022/08/31 08:16:55;;;;;;;12.20;11.13;;;22.00;99.90;;;;;;5090056;28;20266;-85
2022/08/31 08:19:21;;;;;;;11.77;10.73;;;22.00;99.90;;;;;;5088279;28;20202;-86
2022/08/31 08:21:47;;;;;;;11.80;10.73;;;22.00;99.90;;;;;;5087041;28;20182;-85
2022/08/31 08:24:14;;;;;;;13.30;12.13;;;22.20;99.90;;;;;;5089732;28;20832;-86
2022/08/31 08:26:45;;;;;;;13.50;12.48;;;22.20;99.90;;;;;;5089738;28;20195;-86
2022/08/31 08:29:11;;;;;;;13.00;11.90;;;22.20;99.90;;;;;;5090237;28;20183;-85
2022/08/31 08:31:37;;;;;;;12.15;11.25;;;22.20;99.90;;;;;;5078639;28;20294;-85
2022/08/31 08:34:03;;;;;;;11.60;10.60;;;22.20;99.20;;;;;;5084488;28;20639;-87
2022/08/31 08:36:39;;;;;;;12.13;11.13;;;22.30;98.10;;;;;;5072103;28;20315;-86
2022/08/31 08:39:08;;;;;;;11.43;10.43;;;22.30;97.00;;;;;;5083512;28;20274;-87
2022/08/31 08:41:37;;;;;;;11.10;10.20;;;22.20;97.50;;;;;;5088393;28;20195;-85
2022/08/31 08:44:07;;;;;;;10.43;9.63;;;22.20;96.20;;;;;;5091356;28;20215;-85
2022/08/31 08:46:38;;;;;;;9.95;9.15;;;22.30;95.20;;;;;;5092513;28;20179;-85
2022/08/31 08:49:27;;;;;;;8.50;7.82;;;22.40;93.00;;;;;;5086357;28;20191;-86
2022/08/31 08:52:13;;;;;;;9.30;8.23;;;22.50;89.30;;;;;;5086311;28;20203;-88
2022/08/31 08:54:45;;;;;;;9.25;8.55;;;22.20;88.60;;;;;;5082935;28;20347;-85
2022/08/31 08:57:19;;;;;;;8.50;7.53;;;22.20;87.00;;;;;;5069741;28;20199;-86
2022/08/31 08:59:47;;;;;;;7.68;7.07;;;22.10;87.90;;;;;;5084190;28;20205;-85
2022/08/31 09:02:49;;;;;;;8.73;7.97;;;22.10;90.30;;;;;;5079012;28;20203;-86
2022/08/31 09:05:31;;;;;;;9.38;7.68;;;22.00;89.30;;;;;;5064328;28;20229;-85
2022/08/31 09:08:22;;;;;;;8.60;7.80;;;22.00;89.20;;;;;;5088157;28;20642;-85
2022/08/31 09:11:06;;;;;;;8.90;8.10;;;22.00;88.40;;;;;;5079968;28;20376;-85
2022/08/31 09:13:42;;;;;;;9.20;8.13;;;22.10;88.60;;;;;;5090135;28;20716;-85
2022/08/31 09:16:16;;;;;;;8.63;7.93;;;22.10;90.30;;;;;;5088780;28;20179;-85
2022/08/31 09:19:10;;;;;;;8.52;7.68;;;22.30;90.00;;;;;;5087890;28;20652;-85
2022/08/31 09:21:48;;;;;;;8.45;7.57;;;22.30;85.30;;;;;;5084404;28;20212;-87
2022/08/31 09:24:19;;;;;;;8.40;7.63;;;22.30;86.20;;;;;;5089908;28;21153;-85
2022/08/31 09:27:18;;;;;;;8.77;7.95;;;22.40;85.00;;;;;;5092721;28;20659;-85
2022/08/31 09:29:51;;;;;;;8.82;7.55;;;22.50;87.70;;;;;;5089910;28;20262;-84
2022/08/31 09:32:22;;;;;;;8.30;7.60;;;22.70;88.90;;;;;;5083845;28;20199;-86
2022/08/31 09:35:00;;;;;;;9.10;8.20;;;22.80;87.60;;;;;;5087563;28;20575;-84
2022/08/31 09:37:33;;;;;;;8.68;7.97;;;22.90;89.00;;;;;;5087258;28;20651;-85
2022/08/31 09:40:17;;;;;;;9.00;8.25;;;22.70;88.60;;;;;;5090762;28;20296;-87
2022/08/31 09:42:47;;;;;;;8.55;7.85;;;22.70;88.50;;;;;;5088406;28;20283;-85
2022/08/31 09:45:28;;;;;;;9.23;8.43;;;22.50;91.10;;;;;;5092065;28;20229;-85
2022/08/31 09:47:59;;;;;;;9.18;8.43;;;22.30;91.80;;;;;;5092125;28;20178;-86
2022/08/31 09:50:43;;;;;;;10.15;9.35;;;22.30;95.40;;;;;;5088230;28;20191;-85
2022/08/31 09:56:14;;;;;;;10.68;9.63;;;22.10;95.00;;;;;;5096428;28;20242;-87
2022/08/31 09:58:52;;;;;;;10.80;9.80;;;21.90;95.90;;;;;;5097865;28;20190;-86
2022/08/31 10:01:29;;;;;;;10.05;9.07;;;21.50;98.00;;;;;;5098043;28;20195;-86
2022/08/31 10:04:17;;;;;;;9.90;9.02;;;21.30;99.00;;;;;;5097080;28;20205;-86
2022/08/31 10:07:06;;;;;;;9.60;8.73;;;20.90;98.70;;;;;;5086793;28;20192;-87
2022/08/31 10:09:46;;;;;;;9.90;9.10;;;20.70;99.90;;;;;;5098511;28;20258;-86
2022/08/31 10:12:21;;;;;;;8.85;7.97;;;20.60;99.90;;;;;;5097141;28;20224;-86
2022/08/31 10:14:55;;;;;;;8.65;7.80;;;20.60;99.90;;;;;;5091061;28;20210;-86
2022/08/31 10:17:34;;;;;;;8.30;7.60;;;20.60;99.90;;;;;;5098057;28;20189;-87
2022/08/31 10:20:05;;;;;;;8.10;7.32;;;20.50;99.90;;;;;;5095313;28;20210;-85
2022/08/31 10:22:40;;;;;;;7.07;6.53;;;20.60;99.90;;;;;;5092731;28;20198;-85
2022/08/31 10:25:29;;;;;;;7.65;6.80;;;20.70;99.30;;;;;;5092086;28;20210;-86
2022/08/31 10:28:14;;;;;;;7.30;6.63;;;20.70;98.20;;;;;;5087934;28;20211;-87
2022/08/31 10:30:58;;;;;;;7.10;6.38;;;20.60;99.30;;;;;;5090080;28;20189;-85
2022/08/31 10:35:01;;;;;;;7.97;7.22;;;20.70;99.50;;;;;;5089376;28;20183;-85
2022/08/31 10:36:16;;;;;;;7.07;6.50;;;20.80;99.80;;;;;;5086376;28;20206;-87
2022/08/31 10:38:47;;;;;;;7.70;7.10;;;20.80;99.70;;;;;;5088064;28;20178;-88
2022/08/31 10:41:20;;;;;;;8.13;7.43;;;20.80;99.80;;;;;;5091322;28;20678;-86
2022/08/31 10:44:22;;;;;;;7.75;7.15;;;20.80;99.90;;;;;;5087340;28;20206;-86
2022/08/31 10:46:53;;;;;;;8.70;8.00;;;20.70;99.90;;;;;;5111659;27;20186;-85
2022/08/31 10:49:22;;;;;;;8.77;8.02;;;20.60;99.90;;;;;;5078247;28;20214;-87
2022/08/31 10:52:08;;;;;;;8.55;7.85;;;20.70;99.90;;;;;;5094465;28;20213;-85
2022/08/31 10:54:43;;;;;;;8.40;7.75;;;20.70;99.90;;;;;;5095094;28;20214;-85
2022/08/31 10:57:33;;;;;;;8.65;7.97;;;20.80;99.90;;;;;;5087244;28;20259;-87
2022/08/31 11:00:40;;;;;;;9.68;8.85;;;20.90;99.90;;;;;;5094217;28;20208;-88
2022/08/31 11:03:09;;;;;;;8.93;8.23;;;21.10;99.90;;;;;;5099101;28;20199;-87
2022/08/31 11:05:45;;;;;;;8.43;7.72;;;21.10;99.90;;;;;;5091478;28;20205;-85
2022/08/31 11:08:27;;;;;;;8.85;8.15;;;21.10;98.10;;;;;;5091247;28;20190;-86
2022/08/31 11:10:58;;;;;;;9.07;8.18;;;21.10;99.20;;;;;;5091018;28;20274;-86
2022/08/31 11:13:46;;;;;;;9.18;8.52;;;21.30;99.30;;;;;;5093836;28;20198;-86
2022/08/31 11:16:26;;;;;;;8.93;8.32;;;21.40;98.60;;;;;;5096524;28;20202;-85
2022/08/31 11:19:07;;;;;;;9.18;8.45;;;21.30;98.50;;;;;;5086306;28;20795;-85
2022/08/31 11:21:35;;;;;;;9.48;8.75;;;21.40;97.70;;;;;;5092011;28;20220;-84
2022/08/31 11:24:37;;;;;;;8.98;8.20;;;21.50;98.20;;;;;;5092417;28;20881;-86
2022/08/31 11:27:18;;;;;;;8.95;8.15;;;21.60;96.80;;;;;;5075443;28;20202;-84
2022/08/31 11:29:56;;;;;;;10.18;9.35;;;21.60;95.60;;;;;;5095037;28;20219;-85
2022/08/31 11:32:21;;;;;;;10.35;9.45;;;21.70;95.30;;;;;;5084469;28;20203;-86
2022/08/31 11:34:53;;;;;;;9.50;8.70;;;21.60;94.70;;;;;;5083727;28;20205;-85
2022/08/31 11:37:51;;;;;;;9.70;8.98;;;21.60;96.00;;;;;;5089474;28;20196;-85
2022/08/31 11:40:42;;;;;;;9.95;9.15;;;21.60;95.10;;;;;;5086558;28;20199;-84
2022/08/31 11:43:30;;;;;;;9.93;9.07;;;21.50;96.90;;;;;;5083807;28;20163;-85
2022/08/31 11:46:00;;;;;;;10.15;9.20;;;21.60;96.50;;;;;;5089474;28;20206;-85
2022/08/31 11:48:52;;;;;;;9.73;8.82;;;21.50;95.00;;;;;;5086894;28;20291;-84
2022/08/31 11:51:32;;;;;;;9.40;8.52;;;21.50;95.30;;;;;;5088908;28;20217;-85
2022/08/31 11:54:09;;;;;;;9.75;8.98;;;21.60;95.60;;;;;;5083716;28;20201;-85
2022/08/31 11:56:38;;;;;;;8.88;8.18;;;21.60;95.50;;;;;;5087615;28;20187;-85
2022/08/31 11:59:33;;;;;;;9.60;8.80;;;21.60;95.80;;;;;;5089263;28;20878;-85
2022/08/31 12:02:19;;;;;;;9.18;8.48;;;21.60;96.20;;;;;;5084647;28;20203;-85
2022/08/31 12:04:46;;;;;;;10.40;9.57;;;21.60;96.70;;;;;;5084954;28;20212;-87
2022/08/31 12:07:38;;;;;;;9.95;8.75;;;21.70;96.80;;;;;;5087386;28;20202;-86
2022/08/31 12:10:32;;;;;;;10.07;9.15;;;21.80;96.60;;;;;;5079418;28;20202;-86
2022/08/31 12:13:37;;;;;;;10.90;9.13;;;21.90;96.20;;;;;;5089842;28;20233;-85
2022/08/31 12:16:16;;;;;;;10.88;9.98;;;22.00;94.90;;;;;;5027464;28;20216;-85
2022/08/31 12:19:05;;;;;;;10.15;9.35;;;21.90;96.10;;;;;;5079002;28;20203;-85
2022/08/31 12:24:37;;;;;;;10.82;10.02;;;21.70;95.50;;;;;;5079974;28;20214;-85
2022/08/31 12:27:42;;;;;;;10.48;9.63;;;21.70;97.00;;;;;;5084201;28;20180;-84
2022/08/31 12:30:18;;;;;;;10.77;9.93;;;21.90;97.00;;;;;;5078507;28;20298;-85
2022/08/31 12:32:51;;;;;;;11.23;10.23;;;21.90;96.60;;;;;;5080721;28;20838;-85
2022/08/31 12:35:25;;;;;;;11.90;11.00;;;21.80;95.50;;;;;;5084568;28;20202;-85
2022/08/31 12:38:06;;;;;;;11.70;10.50;;;21.70;97.50;;;;;;5080974;28;20328;-84
2022/08/31 12:41:01;;;;;;;11.65;10.75;;;21.70;98.00;;;;;;5079832;28;20179;-85
2022/08/31 12:43:56;;;;;;;12.68;11.77;;;21.60;99.20;;;;;;5080729;28;20191;-84
2022/08/31 12:46:47;;;;;;;12.50;11.32;;;21.70;99.30;;;;;;5070955;28;20234;-85
2022/08/31 12:49:30;;;;;;;12.63;11.52;;;21.70;98.50;;;;;;5085974;28;20256;-83
2022/08/31 12:52:07;;;;;;;12.60;11.55;;;21.70;98.70;;;;;;5086257;28;20289;-85
2022/08/31 12:54:58;;;;;;;12.82;11.63;;;21.80;98.10;;;;;;5084982;28;20610;-86
2022/08/31 12:57:52;;;;;;;12.43;11.30;;;21.80;99.50;;;;;;5086763;28;20179;-85
2022/08/31 13:00:38;;;;;;;11.30;10.30;;;21.80;98.70;;;;;;5085488;28;20221;-84
2022/08/31 13:03:16;;;;;;;11.95;11.05;;;21.60;97.80;;;;;;5082080;28;20540;-85
2022/08/31 13:05:45;;;;;;;12.18;11.18;;;21.40;98.50;;;;;;5086914;28;20191;-85
2022/08/31 13:08:22;;;;;;;12.25;11.25;;;21.40;99.10;;;;;;5084272;28;20732;-86
2022/08/31 13:10:48;;;;;;;11.88;10.88;;;21.40;99.20;;;;;;5084942;28;20221;-85
2022/08/31 13:13:24;;;;;;;12.48;11.05;;;21.50;97.80;;;;;;5087392;28;20205;-85
2022/08/31 13:15:56;;;;;;;10.85;10.05;;;21.60;98.50;;;;;;5082266;28;20182;-85
2022/08/31 13:18:25;;;;;;;10.82;10.05;;;21.70;98.50;;;;;;5083439;28;20186;-86
2022/08/31 13:20:56;;;;;;;10.55;9.75;;;21.80;97.40;;;;;;5085804;28;20277;-86